Time;durP1;ratioP1;P1;durP2;ratioP2;P2;SDS_P1;SDS_P2;PMS_P1;PMS_P2;Temp;Humidity;BMP_temperature;BMP_pressure;BME280_temperature;BME280_humidity;BME280_pressure;Samples;Min_cycle;Max_cycle;Signal;HPM_P1;HPM_P2
2022/12/30 00:01:46;;;;;;;;;;;6.50;99.90;;;;;;5019184;28;19926;-78
2022/12/30 00:04:12;;;;;;;;;;;6.50;99.90;;;;;;5019991;28;19929;-78
2022/12/30 00:06:37;;;;;;;;;;;6.60;99.90;;;;;;5018331;28;19929;-78
2022/12/30 00:09:03;;;;;;;;;;;6.60;99.90;;;;;;5021564;28;19932;-78
2022/12/30 00:11:30;;;;;;;;;;;6.50;99.90;;;;;;5018924;28;19925;-78
2022/12/30 00:34:12;;;;;;;;;;;6.20;99.90;;;;;;5020446;28;19926;-78
2022/12/30 00:36:38;;;;;;;;;;;6.10;99.90;;;;;;5015584;28;19925;-78
2022/12/30 00:39:03;;;;;;;;;;;6.10;99.90;;;;;;5020228;28;19932;-78
2022/12/30 00:44:13;;;;;;;;;;;6.20;99.90;;;;;;5020701;28;19932;-78
2022/12/30 00:46:40;;;;;;;;;;;6.20;99.90;;;;;;5019191;28;19929;-78
2022/12/30 00:57:19;;;;;;;;;;;6.10;99.90;;;;;;5018914;28;19933;-77
2022/12/30 00:59:44;;;;;;;;;;;6.10;99.90;;;;;;5018050;28;20016;-78
2022/12/30 01:02:10;;;;;;;;;;;6.10;99.90;;;;;;5018598;28;19929;-77
2022/12/30 01:04:36;;;;;;;;;;;6.10;99.90;;;;;;5018602;28;19926;-78
2022/12/30 01:07:01;;;;;;;;;;;6.00;99.90;;;;;;5018371;28;19971;-77
2022/12/30 01:09:27;;;;;;;;;;;6.10;99.90;;;;;;5020232;28;19933;-77
2022/12/30 01:12:07;;;;;;;;;;;6.10;99.90;;;;;;5016282;28;19926;-78
2022/12/30 01:14:39;;;;;;;;;;;6.00;99.90;;;;;;5017615;28;19929;-78
2022/12/30 01:17:05;;;;;;;;;;;6.00;99.90;;;;;;5017579;28;19940;-78
2022/12/30 01:19:31;;;;;;;;;;;6.00;99.90;;;;;;5018321;28;19949;-78
2022/12/30 01:21:56;;;;;;;;;;;6.10;99.90;;;;;;5019017;28;19929;-77
2022/12/30 01:24:23;;;;;;;;;;;6.10;99.90;;;;;;5033310;28;19932;-78
2022/12/30 01:26:48;;;;;;;;;;;6.00;99.90;;;;;;5018510;28;19948;-78
2022/12/30 01:29:20;;;;;;;;;;;5.90;99.90;;;;;;5016159;28;19933;-78
2022/12/30 01:31:46;;;;;;;;;;;5.90;99.90;;;;;;5018589;28;19979;-77
2022/12/30 01:34:11;;;;;;;;;;;5.90;99.90;;;;;;5019442;28;19925;-77
2022/12/30 01:36:37;;;;;;;;;;;5.90;99.90;;;;;;5018551;28;19925;-78
2022/12/30 01:39:03;;;;;;;;;;;5.90;99.90;;;;;;5020936;28;19925;-78
2022/12/30 01:41:28;;;;;;;;;;;5.90;99.90;;;;;;5015786;28;19972;-78
2022/12/30 01:43:54;;;;;;;;;;;5.80;99.90;;;;;;5011197;28;19930;-78
2022/12/30 01:46:23;;;;;;;;;;;5.90;99.90;;;;;;5001564;28;20448;-78
2022/12/30 01:48:49;;;;;;;;;;;5.90;99.90;;;;;;5019245;28;20009;-78
2022/12/30 01:51:21;;;;;;;;;;;5.90;99.90;;;;;;5018025;28;19925;-78
2022/12/30 01:53:48;;;;;;;;;;;5.90;99.90;;;;;;4993485;28;20411;-78
2022/12/30 01:56:14;;;;;;;;;;;5.80;99.90;;;;;;5032146;28;19933;-77
2022/12/30 01:58:42;;;;;;;;;;;5.80;99.90;;;;;;5018583;28;19979;-77
2022/12/30 02:01:07;;;;;;;;;;;5.80;99.90;;;;;;5032500;28;19932;-78
2022/12/30 02:03:38;;;;;;;;;;;5.80;99.90;;;;;;5017404;28;20387;-78
2022/12/30 02:06:04;;;;;;;;;;;5.80;99.90;;;;;;5017920;28;19930;-77
2022/12/30 02:08:32;;;;;;;;;;;5.80;99.90;;;;;;5017699;28;19925;-78
2022/12/30 02:10:58;;;;;;;;;;;5.70;99.90;;;;;;5017462;28;19932;-77
2022/12/30 02:13:24;;;;;;;;;;;5.70;99.90;;;;;;5018812;28;19973;-78
2022/12/30 02:15:49;;;;;;;;;;;5.70;99.90;;;;;;5017376;28;19937;-78
2022/12/30 02:18:29;;;;;;;;;;;5.70;99.90;;;;;;5019148;28;19944;-77
2022/12/30 02:21:06;;;;;;;;;;;5.70;99.90;;;;;;5006949;28;19989;-78
2022/12/30 02:23:32;;;;;;;;;;;5.60;99.90;;;;;;5015987;28;19926;-78
2022/12/30 02:26:03;;;;;;;;;;;5.60;99.90;;;;;;5017205;28;20413;-77
2022/12/30 02:28:48;;;;;;;;;;;5.60;99.90;;;;;;4999378;28;19972;-77
2022/12/30 02:31:32;;;;;;;;;;;5.60;99.90;;;;;;5032782;28;19933;-78
2022/12/30 02:34:00;;;;;;;;;;;5.50;99.90;;;;;;5015838;28;19925;-77
2022/12/30 02:36:30;;;;;;;;;;;5.50;99.90;;;;;;5017630;28;19925;-77
2022/12/30 02:39:01;;;;;;;;;;;5.50;99.90;;;;;;5016224;28;19926;-78
2022/12/30 02:44:36;;;;;;;;;;;5.40;99.90;;;;;;5021857;28;19968;-77
2022/12/30 02:47:10;;;;;;;;;;;5.40;99.90;;;;;;5019654;28;20899;-78
2022/12/30 02:49:36;;;;;;;;;;;5.40;99.90;;;;;;5023614;28;19925;-78
2022/12/30 02:52:15;;;;;;;;;;;5.30;99.90;;;;;;5033270;28;19926;-78
2022/12/30 02:54:41;;;;;;;;;;;5.30;99.90;;;;;;5021553;28;19925;-78
2022/12/30 02:57:26;;;;;;;;;;;5.30;99.90;;;;;;5020869;28;19988;-77
2022/12/30 03:05:59;;;;;;;;;;;5.20;99.90;;;;;;5022120;28;19930;-77
2022/12/30 03:08:30;;;;;;;;;;;5.20;99.90;;;;;;5022960;28;19940;-77
2022/12/30 03:11:18;;;;;;;;;;;5.10;99.90;;;;;;5022312;28;19929;-77
2022/12/30 03:13:49;;;;;;;;;;;5.10;99.90;;;;;;5023149;28;19949;-77
2022/12/30 03:16:18;;;;;;;;;;;5.10;99.90;;;;;;5022304;28;20007;-78
2022/12/30 03:18:44;;;;;;;;;;;5.10;99.90;;;;;;5021257;28;19936;-78
2022/12/30 03:21:11;;;;;;;;;;;5.00;99.90;;;;;;5023855;28;19933;-77
2022/12/30 03:29:07;;;;;;;;;;;5.00;99.90;;;;;;5022170;28;19929;-77
2022/12/30 03:31:33;;;;;;;;;;;5.00;99.90;;;;;;5024067;28;19987;-77
2022/12/30 03:33:59;;;;;;;;;;;5.00;99.90;;;;;;5021209;28;20019;-77
2022/12/30 03:36:24;;;;;;;;;;;5.00;99.90;;;;;;5023130;28;20016;-77
2022/12/30 03:38:52;;;;;;;;;;;5.00;99.90;;;;;;5021389;28;19973;-77
2022/12/30 03:41:19;;;;;;;;;;;5.00;99.90;;;;;;5020305;28;19961;-77
2022/12/30 03:43:45;;;;;;;;;;;5.00;99.90;;;;;;5022720;28;19929;-77
2022/12/30 03:46:11;;;;;;;;;;;5.00;99.90;;;;;;5017853;28;19975;-77
2022/12/30 03:48:37;;;;;;;;;;;5.00;99.90;;;;;;5023673;28;19925;-77
2022/12/30 03:51:03;;;;;;;;;;;5.00;99.90;;;;;;5020196;28;19940;-78
2022/12/30 03:53:28;;;;;;;;;;;5.00;99.90;;;;;;5020241;28;19925;-78
2022/12/30 03:55:54;;;;;;;;;;;4.90;99.90;;;;;;5018209;28;20056;-78
2022/12/30 03:58:19;;;;;;;;;;;4.90;99.90;;;;;;5020059;28;19936;-78
2022/12/30 04:00:45;;;;;;;;;;;4.90;99.90;;;;;;5018595;28;19925;-77
2022/12/30 04:03:10;;;;;;;;;;;4.90;99.90;;;;;;5018728;28;20027;-78
2022/12/30 04:05:36;;;;;;;;;;;5.00;99.90;;;;;;5020421;28;19925;-78
2022/12/30 04:08:01;;;;;;;;;;;4.90;99.90;;;;;;5016955;28;19991;-77
2022/12/30 04:10:27;;;;;;;;;;;4.90;99.90;;;;;;5018253;28;20530;-77
2022/12/30 04:12:53;;;;;;;;;;;4.90;99.90;;;;;;5027880;28;19926;-77
2022/12/30 04:15:18;;;;;;;;;;;4.90;99.90;;;;;;5020278;28;19926;-77
2022/12/30 04:17:44;;;;;;;;;;;4.90;99.90;;;;;;5019233;28;19936;-76
2022/12/30 04:20:10;;;;;;;;;;;4.90;99.90;;;;;;5020236;28;20440;-77
2022/12/30 04:22:35;;;;;;;;;;;4.80;99.90;;;;;;5020806;28;20036;-77
2022/12/30 04:25:01;;;;;;;;;;;4.90;99.90;;;;;;5017669;28;19936;-77
2022/12/30 04:27:26;;;;;;;;;;;4.80;99.90;;;;;;5019704;28;19929;-77
2022/12/30 04:29:52;;;;;;;;;;;4.80;99.90;;;;;;5019855;28;20413;-77
2022/12/30 04:32:17;;;;;;;;;;;4.80;99.90;;;;;;5019341;28;20338;-77
2022/12/30 04:34:43;;;;;;;;;;;4.80;99.90;;;;;;5020963;28;20336;-77
2022/12/30 04:37:08;;;;;;;;;;;4.80;99.90;;;;;;5020260;28;19968;-77
2022/12/30 04:39:34;;;;;;;;;;;4.70;99.90;;;;;;5032713;28;19929;-77
2022/12/30 04:41:59;;;;;;;;;;;4.70;99.90;;;;;;5020321;28;19932;-77
2022/12/30 04:44:25;;;;;;;;;;;4.70;99.90;;;;;;5035427;28;19925;-77
2022/12/30 04:46:50;;;;;;;;;;;4.70;99.90;;;;;;5019079;28;19925;-77
2022/12/30 04:49:16;;;;;;;;;;;4.70;99.90;;;;;;5017882;28;19925;-77
2022/12/30 04:51:42;;;;;;;;;;;4.60;99.90;;;;;;5019466;28;19957;-77
2022/12/30 04:54:07;;;;;;;;;;;4.60;99.90;;;;;;5019910;28;19925;-77
2022/12/30 04:56:33;;;;;;;;;;;4.60;99.90;;;;;;5017116;28;20012;-77
2022/12/30 04:58:58;;;;;;;;;;;4.50;99.90;;;;;;5018871;28;19926;-77
2022/12/30 05:01:24;;;;;;;;;;;4.50;99.90;;;;;;5017906;28;19944;-77
2022/12/30 05:03:49;;;;;;;;;;;4.50;99.90;;;;;;5030275;28;19929;-77
2022/12/30 05:06:15;;;;;;;;;;;4.60;99.90;;;;;;5017667;28;20064;-77
2022/12/30 05:08:40;;;;;;;;;;;4.60;99.90;;;;;;5020337;28;19926;-77
2022/12/30 05:11:06;;;;;;;;;;;4.60;99.90;;;;;;5015504;28;19975;-77
2022/12/30 05:13:31;;;;;;;;;;;4.60;99.90;;;;;;5018694;28;19925;-77
2022/12/30 05:15:57;;;;;;;;;;;4.60;99.90;;;;;;5017304;28;19960;-77
2022/12/30 05:18:23;;;;;;;;;;;4.60;99.90;;;;;;5018705;28;19937;-77
2022/12/30 05:20:48;;;;;;;;;;;4.60;99.90;;;;;;5015367;28;19926;-77
2022/12/30 05:26:13;;;;;;;;;;;4.60;99.90;;;;;;5017633;28;20083;-77
2022/12/30 05:28:39;;;;;;;;;;;4.50;99.90;;;;;;5017578;28;19929;-77
2022/12/30 05:31:05;;;;;;;;;;;4.50;99.90;;;;;;5017960;28;19990;-77
2022/12/30 05:33:30;;;;;;;;;;;4.50;99.90;;;;;;5018883;28;19925;-77
2022/12/30 05:35:56;;;;;;;;;;;4.50;99.90;;;;;;5017462;28;20020;-77
2022/12/30 05:38:21;;;;;;;;;;;4.50;99.90;;;;;;5033273;28;19933;-77
2022/12/30 05:40:47;;;;;;;;;;;4.50;99.90;;;;;;5019005;28;20074;-77
2022/12/30 05:43:12;;;;;;;;;;;4.50;99.90;;;;;;5018415;28;19959;-77
2022/12/30 05:45:38;;;;;;;;;;;4.50;99.90;;;;;;5018200;28;19929;-77
2022/12/30 05:48:03;;;;;;;;;;;4.40;99.90;;;;;;5018439;28;19933;-77
2022/12/30 05:50:29;;;;;;;;;;;4.40;99.90;;;;;;5019098;28;19965;-77
2022/12/30 05:52:55;;;;;;;;;;;4.40;99.90;;;;;;5018154;28;20438;-77
2022/12/30 05:55:20;;;;;;;;;;;4.40;99.90;;;;;;5018746;28;19941;-77
2022/12/30 05:57:46;;;;;;;;;;;4.40;99.90;;;;;;5016187;28;19983;-77
2022/12/30 06:00:12;;;;;;;;;;;4.50;99.90;;;;;;5014420;28;20340;-77
2022/12/30 06:02:37;;;;;;;;;;;4.50;99.90;;;;;;5015605;28;19996;-77
2022/12/30 06:05:03;;;;;;;;;;;4.40;99.90;;;;;;5019234;28;19929;-77
2022/12/30 06:07:28;;;;;;;;;;;4.40;99.90;;;;;;5017347;28;20001;-78
2022/12/30 06:09:54;;;;;;;;;;;4.40;99.90;;;;;;5030008;28;20623;-78
2022/12/30 06:12:19;;;;;;;;;;;4.40;99.90;;;;;;5017499;28;19934;-78
2022/12/30 06:14:45;;;;;;;;;;;4.40;99.90;;;;;;5014002;28;19929;-78
2022/12/30 06:17:11;;;;;;;;;;;4.40;99.90;;;;;;5012995;28;19948;-78
2022/12/30 06:19:36;;;;;;;;;;;4.40;99.90;;;;;;5015261;28;19956;-78
2022/12/30 06:22:02;;;;;;;;;;;4.40;99.90;;;;;;5015674;28;20016;-78
2022/12/30 06:24:27;;;;;;;;;;;4.40;99.90;;;;;;5015056;28;19929;-78
2022/12/30 06:26:53;;;;;;;;;;;4.40;99.90;;;;;;5014679;28;20068;-77
2022/12/30 06:29:18;;;;;;;;;;;4.40;99.90;;;;;;5014300;28;19929;-78
2022/12/30 06:31:44;;;;;;;;;;;4.40;99.90;;;;;;5010998;28;19930;-78
2022/12/30 06:34:09;;;;;;;;;;;4.40;99.90;;;;;;5030829;28;20486;-79
2022/12/30 06:36:35;;;;;;;;;;;4.40;99.90;;;;;;5013656;28;19929;-79
2022/12/30 06:39:00;;;;;;;;;;;4.40;99.90;;;;;;5014968;28;19925;-79
2022/12/30 06:41:26;;;;;;;;;;;4.30;99.90;;;;;;5017714;28;19977;-78
2022/12/30 06:43:52;;;;;;;;;;;4.30;99.90;;;;;;5018139;28;20401;-78
2022/12/30 06:46:17;;;;;;;;;;;4.30;99.90;;;;;;5014042;28;20061;-78
2022/12/30 06:48:43;;;;;;;;;;;4.40;99.90;;;;;;5016468;28;19952;-78
2022/12/30 06:51:08;;;;;;;;;;;4.40;99.90;;;;;;5015263;28;20001;-78
2022/12/30 06:53:34;;;;;;;;;;;4.40;99.90;;;;;;5015528;28;19937;-79
2022/12/30 06:55:59;;;;;;;;;;;4.40;99.90;;;;;;5032375;28;20060;-79
2022/12/30 06:58:26;;;;;;;;;;;4.40;99.90;;;;;;5015724;28;19940;-78
2022/12/30 07:00:51;;;;;;;;;;;4.40;99.90;;;;;;5017996;28;19925;-78
2022/12/30 07:03:17;;;;;;;;;;;4.40;99.90;;;;;;5010671;28;19930;-78
2022/12/30 07:05:43;;;;;;;;;;;4.30;99.90;;;;;;5013470;28;19943;-78
2022/12/30 07:08:08;;;;;;;;;;;4.30;99.90;;;;;;4999640;28;19933;-78
2022/12/30 07:10:34;;;;;;;;;;;4.30;99.90;;;;;;5005940;28;20019;-77
2022/12/30 07:12:59;;;;;;;;;;;4.30;99.90;;;;;;5027147;28;19956;-78
2022/12/30 07:15:25;;;;;;;;;;;4.40;99.90;;;;;;5010968;28;19940;-78
2022/12/30 07:17:51;;;;;;;;;;;4.40;99.90;;;;;;5012290;28;19926;-78
2022/12/30 07:20:17;;;;;;;;;;;4.40;99.90;;;;;;5011722;28;19929;-77
2022/12/30 07:22:42;;;;;;;;;;;4.40;99.90;;;;;;5011245;28;20175;-78
2022/12/30 07:25:08;;;;;;;;;;;4.40;99.90;;;;;;5006044;28;19930;-78
2022/12/30 07:27:34;;;;;;;;;;;4.40;99.90;;;;;;5013558;28;19933;-78
2022/12/30 07:29:59;;;;;;;;;;;4.40;99.90;;;;;;5017185;28;19926;-78
2022/12/30 07:32:25;;;;;;;;;;;4.40;99.90;;;;;;5014183;28;20445;-78
2022/12/30 07:34:50;;;;;;;;;;;4.40;99.90;;;;;;5015806;28;19960;-78
2022/12/30 07:37:16;;;;;;;;;;;4.50;99.90;;;;;;5015318;28;20031;-78
2022/12/30 07:39:41;;;;;;;;;;;4.50;99.90;;;;;;5010092;28;19937;-78
2022/12/30 07:42:07;;;;;;;;;;;4.50;99.90;;;;;;5017092;28;19932;-77
2022/12/30 07:44:33;;;;;;;;;;;4.50;99.90;;;;;;5012355;28;20116;-78
2022/12/30 07:46:58;;;;;;;;;;;4.50;99.90;;;;;;5014036;28;20104;-78
2022/12/30 07:49:24;;;;;;;;;;;4.50;99.90;;;;;;5013824;28;19952;-78
2022/12/30 07:51:50;;;;;;;;;;;4.50;99.90;;;;;;5028919;28;19925;-77
2022/12/30 07:54:15;;;;;;;;;;;4.50;99.90;;;;;;5009498;28;19973;-77
2022/12/30 07:56:41;;;;;;;;;;;4.60;99.90;;;;;;5012284;28;19930;-78
2022/12/30 07:59:06;;;;;;;;;;;4.60;99.90;;;;;;5014126;28;19929;-77
2022/12/30 08:01:32;;;;;;;;;;;4.60;99.90;;;;;;5016231;28;19933;-77
2022/12/30 08:03:58;;;;;;;;;;;4.60;99.90;;;;;;5010299;28;20332;-77
2022/12/30 08:06:23;;;;;;;;;;;4.60;99.90;;;;;;5013175;28;19976;-78
2022/12/30 08:08:49;;;;;;;;;;;4.60;99.90;;;;;;5013039;28;19934;-77
2022/12/30 08:11:15;;;;;;;;;;;4.60;99.90;;;;;;5007830;28;19933;-77
2022/12/30 08:13:42;;;;;;;;;;;4.70;99.90;;;;;;5009747;28;19936;-78
2022/12/30 08:16:09;;;;;;;;;;;4.70;99.90;;;;;;5009660;28;19989;-77
2022/12/30 08:18:34;;;;;;;;;;;4.80;99.90;;;;;;5009849;28;19929;-77
2022/12/30 08:21:08;;;;;;;;;;;4.80;99.90;;;;;;5013606;28;20347;-78
2022/12/30 08:23:36;;;;;;;;;;;4.80;99.90;;;;;;5009402;28;20212;-77
2022/12/30 08:26:31;;;;;;;;;;;4.90;99.90;;;;;;5012948;28;19930;-77
2022/12/30 08:28:56;;;;;;;;;;;4.90;99.90;;;;;;4996443;28;19929;-77
2022/12/30 08:31:23;;;;;;;;;;;5.00;99.90;;;;;;5007985;28;19980;-77
2022/12/30 08:33:49;;;;;;;;;;;5.00;99.90;;;;;;5008391;28;20364;-77
2022/12/30 08:36:16;;;;;;;;;;;5.00;99.90;;;;;;5010542;28;19934;-77
2022/12/30 08:38:43;;;;;;;;;;;5.00;99.90;;;;;;5009505;28;20064;-77
2022/12/30 08:41:09;;;;;;;;;;;5.10;99.90;;;;;;5009143;28;19955;-78
2022/12/30 08:43:34;;;;;;;;;;;5.10;99.90;;;;;;5008604;28;20040;-77
2022/12/30 08:46:00;;;;;;;;;;;5.20;99.90;;;;;;5008169;28;19948;-78
2022/12/30 08:48:26;;;;;;;;;;;5.10;99.90;;;;;;5009412;28;19926;-78
2022/12/30 08:50:55;;;;;;;;;;;5.20;99.90;;;;;;5024398;28;19932;-78
2022/12/30 08:53:21;;;;;;;;;;;5.20;99.90;;;;;;5009618;28;19984;-78
2022/12/30 08:55:46;;;;;;;;;;;5.30;99.90;;;;;;4992489;28;19930;-78
2022/12/30 08:58:12;;;;;;;;;;;5.30;99.90;;;;;;5008148;28;19930;-77
2022/12/30 09:00:38;;;;;;;;;;;5.30;99.90;;;;;;5010909;28;19933;-78
2022/12/30 09:03:03;;;;;;;;;;;5.40;99.90;;;;;;5006068;28;19929;-77
2022/12/30 09:05:31;;;;;;;;;;;5.40;99.90;;;;;;5024084;28;19941;-77
2022/12/30 09:07:57;;;;;;;;;;;5.40;99.90;;;;;;5004021;28;19948;-78
2022/12/30 09:10:22;;;;;;;;;;;5.40;99.90;;;;;;5025088;28;19925;-78
2022/12/30 09:12:48;;;;;;;;;;;5.40;99.90;;;;;;5009652;28;19967;-78
2022/12/30 09:15:13;;;;;;;;;;;5.50;99.90;;;;;;5008634;28;19926;-78
2022/12/30 09:17:39;;;;;;;;;;;5.50;99.90;;;;;;5006676;28;19930;-78
2022/12/30 09:20:05;;;;;;;;;;;5.50;99.90;;;;;;5009542;28;19941;-78
2022/12/30 09:22:30;;;;;;;;;;;5.50;99.90;;;;;;5010353;28;20388;-78
2022/12/30 09:24:56;;;;;;;;;;;5.60;99.90;;;;;;5003844;28;19925;-79
2022/12/30 09:27:21;;;;;;;;;;;5.60;99.90;;;;;;5009826;28;19925;-79
2022/12/30 09:29:47;;;;;;;;;;;5.60;99.90;;;;;;5011486;28;19993;-78
2022/12/30 09:32:13;;;;;;;;;;;5.70;99.90;;;;;;5007267;28;19939;-81
2022/12/30 09:34:38;;;;;;;;;;;5.70;99.90;;;;;;5027042;28;19925;-79
2022/12/30 09:37:04;;;;;;;;;;;5.70;99.90;;;;;;5014464;28;19940;-78
2022/12/30 09:39:32;;;;;;;;;;;5.80;99.90;;;;;;5014611;28;19941;-79
2022/12/30 09:44:58;;;;;;;;;;;5.80;99.90;;;;;;5011898;28;19925;-79
2022/12/30 09:47:32;;;;;;;;;;;5.80;99.90;;;;;;5008818;28;19929;-79
2022/12/30 09:50:01;;;;;;;;;;;5.80;99.90;;;;;;5013232;28;19926;-79
2022/12/30 09:52:30;;;;;;;;;;;5.90;99.90;;;;;;5014152;28;19934;-79
2022/12/30 09:55:04;;;;;;;;;;;5.90;99.90;;;;;;5010514;28;19930;-79
2022/12/30 09:57:31;;;;;;;;;;;6.00;99.90;;;;;;5010462;28;19988;-79
2022/12/30 10:00:07;;;;;;;;;;;5.90;99.90;;;;;;5013024;28;19929;-79
2022/12/30 10:02:43;;;;;;;;;;;6.00;99.90;;;;;;5026725;28;19925;-79
2022/12/30 10:05:11;;;;;;;;;;;6.00;99.90;;;;;;5006263;28;20313;-79
2022/12/30 10:07:40;;;;;;;;;;;6.00;99.90;;;;;;5011214;28;19925;-79
2022/12/30 10:10:20;;;;;;;;;;;6.10;99.90;;;;;;5013205;28;19929;-80
2022/12/30 10:13:04;;;;;;;;;;;6.10;99.90;;;;;;5011934;28;19964;-79
2022/12/30 10:15:32;;;;;;;;;;;6.20;99.90;;;;;;5013811;28;19932;-78
2022/12/30 10:18:21;;;;;;;;;;;6.30;99.90;;;;;;5009574;28;19944;-79
2022/12/30 10:21:02;;;;;;;;;;;6.30;99.90;;;;;;5000680;28;19929;-79
2022/12/30 10:23:47;;;;;;;;;;;6.40;99.90;;;;;;5009978;28;19932;-79
2022/12/30 10:26:20;;;;;;;;;;;6.50;99.90;;;;;;5011704;28;19936;-79
2022/12/30 10:29:12;;;;;;;;;;;6.50;99.90;;;;;;5010946;28;19965;-79
2022/12/30 10:31:38;;;;;;;;;;;6.60;99.90;;;;;;5009076;28;19984;-79
2022/12/30 10:34:13;;;;;;;;;;;6.70;99.90;;;;;;5011289;28;19929;-79
2022/12/30 10:36:58;;;;;;;;;;;6.70;99.90;;;;;;5012352;28;19933;-79
2022/12/30 10:39:30;;;;;;;;;;;6.80;99.90;;;;;;5010474;28;19925;-79
2022/12/30 10:42:04;;;;;;;;;;;6.80;99.90;;;;;;5010216;28;19933;-79
2022/12/30 10:44:40;;;;;;;;;;;6.90;99.90;;;;;;5011598;28;19960;-79
2022/12/30 10:47:12;;;;;;;;;;;6.90;99.90;;;;;;5010828;28;19926;-79
2022/12/30 10:49:55;;;;;;;;;;;7.00;99.90;;;;;;5011120;28;20292;-79
2022/12/30 10:52:21;;;;;;;;;;;7.00;99.90;;;;;;5008409;28;20689;-79
2022/12/30 10:54:47;;;;;;;;;;;7.00;99.90;;;;;;5012855;28;19987;-79
2022/12/30 10:57:24;;;;;;;;;;;7.10;99.90;;;;;;5010989;28;19925;-79
2022/12/30 10:59:50;;;;;;;;;;;7.00;99.90;;;;;;5011158;28;19932;-79
2022/12/30 11:02:28;;;;;;;;;;;7.10;99.90;;;;;;4997652;28;19934;-79
2022/12/30 11:04:53;;;;;;;;;;;7.10;99.90;;;;;;5017175;28;20380;-79
2022/12/30 11:07:20;;;;;;;;;;;7.10;99.90;;;;;;5012804;28;19972;-79
2022/12/30 11:09:46;;;;;;;;;;;7.20;99.90;;;;;;5014531;28;19929;-79
2022/12/30 11:15:04;;;;;;;;;;;7.20;99.90;;;;;;5015365;28;19925;-79
2022/12/30 11:17:53;;;;;;;;;;;7.20;99.90;;;;;;5014443;28;19929;-79
2022/12/30 11:20:18;;;;;;;;;;;7.20;99.90;;;;;;4987419;28;20755;-79
2022/12/30 11:22:44;;;;;;;;;;;7.30;99.90;;;;;;5029748;28;19929;-79
2022/12/30 11:25:16;;;;;;;;;;;7.30;99.90;;;;;;5014345;28;19996;-80
2022/12/30 11:27:43;;;;;;;;;;;7.30;99.90;;;;;;5029237;28;20003;-79
2022/12/30 11:30:41;;;;;;;;;;;7.40;99.90;;;;;;5013841;28;20032;-79
2022/12/30 11:33:16;;;;;;;;;;;7.40;99.90;;;;;;4984662;28;20328;-79
2022/12/30 11:35:43;;;;;;;;;;;7.50;99.90;;;;;;5012043;28;19929;-79
2022/12/30 11:38:27;;;;;;;;;;;7.50;99.90;;;;;;5014613;28;20419;-79
2022/12/30 11:40:53;;;;;;;;;;;7.50;99.90;;;;;;5014746;28;20210;-79
2022/12/30 11:43:19;;;;;;;;;;;7.50;99.90;;;;;;5015724;28;19925;-79
2022/12/30 11:45:54;;;;;;;;;;;7.60;99.90;;;;;;4998063;28;19929;-79
2022/12/30 11:48:30;;;;;;;;;;;7.60;99.90;;;;;;5016048;28;20363;-79
2022/12/30 11:50:57;;;;;;;;;;;7.60;99.90;;;;;;5014264;28;20012;-80
2022/12/30 11:53:24;;;;;;;;;;;7.70;99.90;;;;;;5013208;28;19930;-79
2022/12/30 11:55:50;;;;;;;;;;;7.70;99.90;;;;;;5011645;28;19940;-79
2022/12/30 11:58:17;;;;;;;;;;;7.80;99.90;;;;;;5013259;28;19988;-79
2022/12/30 12:00:44;;;;;;;;;;;7.90;99.90;;;;;;5015881;28;19992;-79
2022/12/30 12:03:14;;;;;;;;;;;7.90;99.90;;;;;;5014506;28;19933;-79
2022/12/30 12:05:42;;;;;;;;;;;7.90;99.90;;;;;;5011270;28;19926;-79
2022/12/30 12:08:19;;;;;;;;;;;8.00;99.90;;;;;;5013228;28;20364;-79
2022/12/30 12:10:52;;;;;;;;;;;8.00;99.90;;;;;;5009556;28;19936;-79
2022/12/30 12:13:17;;;;;;;;;;;8.00;99.90;;;;;;5014416;28;19979;-79
2022/12/30 12:15:45;;;;;;;;;;;8.00;99.90;;;;;;5011332;28;19930;-79
2022/12/30 12:18:14;;;;;;;;;;;8.00;99.90;;;;;;5011356;28;19925;-79
2022/12/30 12:21:00;;;;;;;;;;;8.10;99.90;;;;;;5012565;28;19989;-79
2022/12/30 12:23:31;;;;;;;;;;;8.10;99.90;;;;;;5013680;28;19985;-79
2022/12/30 12:26:29;;;;;;;;;;;8.10;99.90;;;;;;5014342;28;20003;-79
2022/12/30 12:28:56;;;;;;;;;;;8.10;99.90;;;;;;4978902;28;20332;-79
2022/12/30 12:31:21;;;;;;;;;;;8.10;99.90;;;;;;5013441;28;19980;-79
2022/12/30 12:33:53;;;;;;;;;;;8.20;99.90;;;;;;5013879;28;19933;-79
2022/12/30 12:36:27;;;;;;;;;;;8.20;99.90;;;;;;5013120;28;20411;-79
2022/12/30 12:39:08;;;;;;;;;;;8.30;99.90;;;;;;5012813;28;19997;-79
2022/12/30 12:41:58;;;;;;;;;;;8.30;99.90;;;;;;5014981;28;19980;-79
2022/12/30 12:44:27;;;;;;;;;;;8.30;99.90;;;;;;5011794;28;19925;-80
2022/12/30 12:46:52;;;;;;;;;;;8.30;99.90;;;;;;5014590;28;20001;-80
2022/12/30 12:49:18;;;;;;;;;;;8.30;99.90;;;;;;5014474;28;19964;-79
2022/12/30 12:51:51;;;;;;;;;;;8.40;99.90;;;;;;5010128;28;19933;-79
2022/12/30 12:54:40;;;;;;;;;;;8.40;99.90;;;;;;5013540;28;20004;-79
2022/12/30 12:57:15;;;;;;;;;;;8.40;99.90;;;;;;5025355;28;19941;-79
2022/12/30 12:59:41;;;;;;;;;;;8.40;99.90;;;;;;5014091;28;19925;-78
2022/12/30 13:02:25;;;;;;;;;;;8.50;99.90;;;;;;5012683;28;19979;-80
2022/12/30 13:05:02;;;;;;;;;;;8.50;99.90;;;;;;5011418;28;19937;-80
2022/12/30 13:07:30;;;;;;;;;;;8.50;99.90;;;;;;5012606;28;19929;-80
2022/12/30 13:10:11;;;;;;;;;;;8.50;99.90;;;;;;5012251;28;20125;-80
2022/12/30 13:12:46;;;;;;;;;;;8.60;99.90;;;;;;5009662;28;19929;-80
2022/12/30 13:15:23;;;;;;;;;;;8.60;99.90;;;;;;5008905;28;19926;-79
2022/12/30 13:17:50;;;;;;;;;;;8.60;99.90;;;;;;5012835;28;19937;-79
2022/12/30 13:20:17;;;;;;;;;;;8.60;99.90;;;;;;5013730;28;19936;-80
2022/12/30 13:22:43;;;;;;;;;;;8.60;99.90;;;;;;5011328;28;19977;-80
2022/12/30 13:25:17;;;;;;;;;;;8.70;99.90;;;;;;5012572;28;20515;-80
2022/12/30 13:27:44;;;;;;;;;;;8.70;99.90;;;;;;5010561;28;19936;-79
2022/12/30 13:30:13;;;;;;;;;;;8.70;99.90;;;;;;5025665;28;19930;-80
2022/12/30 13:33:02;;;;;;;;;;;8.70;99.90;;;;;;5011543;28;19949;-80
2022/12/30 13:35:46;;;;;;;;;;;8.70;99.90;;;;;;5010529;28;19935;-79
2022/12/30 13:38:21;;;;;;;;;;;8.80;99.90;;;;;;5012968;28;19929;-80
2022/12/30 13:40:49;;;;;;;;;;;8.70;99.90;;;;;;5010808;28;19933;-81
2022/12/30 13:43:21;;;;;;;;;;;8.80;99.90;;;;;;5010433;28;20000;-80
2022/12/30 13:45:47;;;;;;;;;;;8.90;99.90;;;;;;5011725;28;20314;-79
2022/12/30 13:48:19;;;;;;;;;;;8.90;99.90;;;;;;5012995;28;20325;-79
2022/12/30 13:50:46;;;;;;;;;;;8.90;99.90;;;;;;5013052;28;19929;-80
2022/12/30 13:53:23;;;;;;;;;;;9.00;99.90;;;;;;4996327;28;19925;-80
2022/12/30 13:55:50;;;;;;;;;;;9.00;99.90;;;;;;5007319;28;19936;-80
2022/12/30 13:58:21;;;;;;;;;;;9.10;99.90;;;;;;5010107;28;19961;-80
2022/12/30 14:01:06;;;;;;;;;;;9.10;99.90;;;;;;5012021;28;19945;-80
2022/12/30 14:03:34;;;;;;;;;;;9.10;99.90;;;;;;5010997;28;19925;-80
2022/12/30 14:06:01;;;;;;;;;;;9.00;99.90;;;;;;5011577;28;20403;-79
2022/12/30 14:08:26;;;;;;;;;;;9.00;99.90;;;;;;5011812;28;19926;-80
2022/12/30 14:11:01;;;;;;;;;;;9.00;99.90;;;;;;5013468;28;19972;-80
2022/12/30 14:13:26;;;;;;;;;;;9.00;99.90;;;;;;5012066;28;19972;-79
2022/12/30 14:15:56;;;;;;;;;;;8.90;99.90;;;;;;5011429;28;19925;-77
2022/12/30 14:18:37;;;;;;;;;;;8.90;99.90;;;;;;5004366;28;19941;-79
2022/12/30 14:21:10;;;;;;;;;;;8.80;99.90;;;;;;5010994;28;19929;-79
2022/12/30 14:23:39;;;;;;;;;;;8.80;99.90;;;;;;5029714;28;19987;-79
2022/12/30 14:26:20;;;;;;;;;;;8.70;99.90;;;;;;5030787;28;19964;-79
2022/12/30 14:28:48;;;;;;;;;;;8.70;99.90;;;;;;5018772;28;19965;-79
2022/12/30 14:31:20;;;;;;;;;;;8.70;99.90;;;;;;5033266;28;19937;-80
2022/12/30 14:33:47;;;;;;;;;;;8.70;99.90;;;;;;5033820;28;20360;-80
2022/12/30 14:36:12;;;;;;;;;;;8.70;99.90;;;;;;5014765;28;20008;-78
2022/12/30 14:38:50;;;;;;;;;;;8.70;99.90;;;;;;5034079;28;19948;-80
2022/12/30 14:41:20;;;;;;;;;;;8.70;99.90;;;;;;5030930;28;19929;-80
2022/12/30 14:43:55;;;;;;;;;;;8.70;99.90;;;;;;5016944;28;20367;-78
2022/12/30 14:48:58;;;;;;;;;;;8.60;99.90;;;;;;5016087;28;19992;-78
2022/12/30 14:51:24;;;;;;;;;;;8.60;99.90;;;;;;5014009;28;20560;-77
2022/12/30 14:53:50;;;;;;;;;;;8.60;99.90;;;;;;5016392;28;19925;-77
2022/12/30 14:56:17;;;;;;;;;;;8.50;99.90;;;;;;5015668;28;19930;-77
2022/12/30 14:58:42;;;;;;;;;;;8.60;99.90;;;;;;5013813;28;19936;-78
2022/12/30 15:01:12;;;;;;;;;;;8.50;99.90;;;;;;5014622;28;20008;-78
2022/12/30 15:03:37;;;;;;;;;;;8.60;99.90;;;;;;5016439;28;19948;-77
2022/12/30 15:06:03;;;;;;;;;;;8.50;99.90;;;;;;5016168;28;20387;-78
2022/12/30 15:08:32;;;;;;;;;;;8.60;99.90;;;;;;5017101;28;19929;-78
2022/12/30 15:11:08;;;;;;;;;;;8.60;99.90;;;;;;5016555;28;19925;-78
2022/12/30 15:13:41;;;;;;;;;;;8.60;99.90;;;;;;5017089;28;20020;-78
2022/12/30 15:16:09;;;;;;;;;;;8.60;99.90;;;;;;5016749;28;19948;-78
2022/12/30 15:18:49;;;;;;;;;;;8.60;99.90;;;;;;5015552;28;19929;-78
2022/12/30 15:21:17;;;;;;;;;;;8.60;99.90;;;;;;5016811;28;19976;-78
2022/12/30 15:23:43;;;;;;;;;;;8.60;99.90;;;;;;5015839;28;19925;-78
2022/12/30 15:26:13;;;;;;;;;;;8.60;99.90;;;;;;5032619;28;19926;-78
2022/12/30 15:28:39;;;;;;;;;;;8.50;99.90;;;;;;5015378;28;19997;-78
2022/12/30 15:31:04;;;;;;;;;;;8.50;99.90;;;;;;5018280;28;19925;-78
2022/12/30 15:33:30;;;;;;;;;;;8.50;99.90;;;;;;5031622;28;19925;-78
2022/12/30 15:35:55;;;;;;;;;;;8.40;99.90;;;;;;5017698;28;20385;-78
2022/12/30 15:38:26;;;;;;;;;;;8.40;99.90;;;;;;5014927;28;19929;-78